createdAt,value
2022-08-26T00:00:18.851Z,0.00
2022-08-26T00:01:18.837Z,0.00
2022-08-26T00:02:19.380Z,0.00
2022-08-26T00:03:18.815Z,0.00
2022-08-26T00:04:18.939Z,0.00
2022-08-26T00:05:18.788Z,0.00
2022-08-26T00:06:20.392Z,0.00
2022-08-26T00:07:18.768Z,0.00
2022-08-26T00:08:18.762Z,0.00
2022-08-26T00:09:18.761Z,0.00
2022-08-26T00:10:18.733Z,0.00
2022-08-26T00:11:26.236Z,0.00
2022-08-26T00:12:18.715Z,0.00
2022-08-26T00:13:19.639Z,0.00
2022-08-26T00:14:18.688Z,0.00
2022-08-26T00:15:18.679Z,0.00
2022-08-26T00:16:18.687Z,0.00
2022-08-26T00:17:18.651Z,0.00
2022-08-26T00:18:22.290Z,0.00
2022-08-26T00:19:18.630Z,0.00
2022-08-26T00:20:18.619Z,0.00
2022-08-26T00:21:18.606Z,0.00
2022-08-26T00:22:21.478Z,0.00
2022-08-26T00:23:18.583Z,0.00
2022-08-26T00:24:18.570Z,0.00
2022-08-26T00:25:18.565Z,0.00
2022-08-26T00:26:18.548Z,0.00
2022-08-26T00:27:18.540Z,0.00
2022-08-26T00:28:18.950Z,0.00
2022-08-26T00:29:18.508Z,0.00
2022-08-26T00:30:22.781Z,0.00
2022-08-26T00:31:18.554Z,0.00
2022-08-26T00:32:18.480Z,0.00
2022-08-26T00:33:18.499Z,0.00
2022-08-26T00:34:19.438Z,0.00
2022-08-26T00:35:18.442Z,0.00
2022-08-26T00:36:20.289Z,0.00
2022-08-26T00:37:18.421Z,0.00
2022-08-26T00:38:18.409Z,0.00
2022-08-26T00:39:18.397Z,0.00
2022-08-26T00:40:18.511Z,0.00
2022-08-26T00:41:18.372Z,0.00
2022-08-26T00:42:18.361Z,0.00
2022-08-26T00:43:18.348Z,0.00
2022-08-26T00:44:18.339Z,0.00
2022-08-26T00:45:18.327Z,0.00
2022-08-26T00:46:18.314Z,0.00
2022-08-26T00:47:18.305Z,0.00
2022-08-26T00:48:18.290Z,0.00
2022-08-26T00:49:18.278Z,0.00
2022-08-26T00:50:18.269Z,0.00
2022-08-26T00:51:18.255Z,0.00
2022-08-26T00:52:18.248Z,0.00
2022-08-26T00:53:18.233Z,0.00
2022-08-26T00:54:18.220Z,0.00
2022-08-26T00:55:20.359Z,0.00
2022-08-26T00:56:18.198Z,0.00
2022-08-26T00:57:18.185Z,0.00
2022-08-26T00:58:18.172Z,0.00
2022-08-26T00:59:18.160Z,0.00
2022-08-26T01:00:18.150Z,0.00
2022-08-26T01:01:18.182Z,0.00
2022-08-26T01:02:20.908Z,0.00
2022-08-26T01:03:18.115Z,0.00
2022-08-26T01:04:18.105Z,0.00
2022-08-26T01:05:18.094Z,0.00
2022-08-26T01:06:18.079Z,0.00
2022-08-26T01:07:18.068Z,0.00
2022-08-26T01:08:18.055Z,0.00
2022-08-26T01:09:18.046Z,0.00
2022-08-26T01:10:18.031Z,0.00
2022-08-26T01:11:18.020Z,0.00
2022-08-26T01:12:21.956Z,0.00
2022-08-26T01:13:17.999Z,0.00
2022-08-26T01:14:17.982Z,0.00
2022-08-26T01:15:17.974Z,0.00
2022-08-26T01:16:18.004Z,0.00
2022-08-26T01:17:17.947Z,0.00
2022-08-26T01:18:17.938Z,0.00
2022-08-26T01:19:17.921Z,0.00
2022-08-26T01:20:17.910Z,0.00
2022-08-26T01:21:17.898Z,0.00
2022-08-26T01:22:17.887Z,0.00
2022-08-26T01:23:17.878Z,0.00
2022-08-26T01:24:17.868Z,0.00
2022-08-26T01:25:17.863Z,0.00
2022-08-26T01:26:20.029Z,0.00
2022-08-26T01:27:17.828Z,0.00
2022-08-26T01:28:17.817Z,0.00
2022-08-26T01:29:17.803Z,0.00
2022-08-26T01:30:17.797Z,0.00
2022-08-26T01:31:17.816Z,0.00
2022-08-26T01:32:17.772Z,0.00
2022-08-26T01:33:17.758Z,0.00
2022-08-26T01:34:17.749Z,0.00
2022-08-26T01:35:17.734Z,0.00
2022-08-26T01:36:17.725Z,0.00
2022-08-26T01:37:17.713Z,0.00
2022-08-26T01:38:17.698Z,0.00
2022-08-26T01:39:17.689Z,0.00
2022-08-26T01:40:17.751Z,0.00
2022-08-26T01:41:19.870Z,0.00
2022-08-26T01:42:17.758Z,0.00
2022-08-26T01:43:17.653Z,0.00
2022-08-26T01:44:17.628Z,0.00
2022-08-26T01:45:17.616Z,0.00
2022-08-26T01:46:17.664Z,0.00
2022-08-26T01:47:17.593Z,0.00
2022-08-26T01:48:17.581Z,0.00
2022-08-26T01:49:17.568Z,0.00
2022-08-26T01:50:27.802Z,0.00
2022-08-26T01:51:17.546Z,0.00
2022-08-26T01:52:17.533Z,0.00
2022-08-26T01:53:17.529Z,0.00
2022-08-26T01:54:17.510Z,0.00
2022-08-26T01:55:32.919Z,0.00
2022-08-26T01:56:17.490Z,0.00
2022-08-26T01:57:17.471Z,0.00
2022-08-26T01:58:17.461Z,0.00
2022-08-26T01:59:17.454Z,0.00
2022-08-26T02:00:17.442Z,0.00
2022-08-26T02:01:17.484Z,0.00
2022-08-26T02:02:17.419Z,0.00
2022-08-26T02:03:17.469Z,0.00
2022-08-26T02:04:17.438Z,0.00
2022-08-26T02:05:17.385Z,0.00
2022-08-26T02:06:17.369Z,0.00
2022-08-26T02:07:17.357Z,0.00
2022-08-26T02:08:17.344Z,0.00
2022-08-26T02:09:17.337Z,0.00
2022-08-26T02:10:17.324Z,0.00
2022-08-26T02:11:18.437Z,0.00
2022-08-26T02:12:17.299Z,0.00
2022-08-26T02:13:17.289Z,0.00
2022-08-26T02:14:17.278Z,0.00
2022-08-26T02:15:17.315Z,0.00
2022-08-26T02:16:17.299Z,0.00
2022-08-26T02:17:17.240Z,0.00
2022-08-26T02:18:17.227Z,0.00
2022-08-26T02:19:17.496Z,0.00
2022-08-26T02:20:17.205Z,0.00
2022-08-26T02:21:17.197Z,0.00
2022-08-26T02:22:17.183Z,0.00
2022-08-26T02:23:17.168Z,0.00
2022-08-26T02:24:17.160Z,0.00
2022-08-26T02:25:17.145Z,0.00
2022-08-26T02:26:18.121Z,0.00
2022-08-26T02:27:17.124Z,0.00
2022-08-26T02:28:17.114Z,0.00
2022-08-26T02:29:17.098Z,0.00
2022-08-26T02:30:17.375Z,0.00
2022-08-26T02:31:17.121Z,0.00
2022-08-26T02:32:18.422Z,0.00
2022-08-26T02:33:17.054Z,0.00
2022-08-26T02:34:17.039Z,0.00
2022-08-26T02:35:18.213Z,0.00
2022-08-26T02:36:17.015Z,0.00
2022-08-26T02:37:17.618Z,0.00
2022-08-26T02:38:16.995Z,0.00
2022-08-26T02:39:22.063Z,0.00
2022-08-26T02:40:17.035Z,0.00
2022-08-26T02:41:16.953Z,0.00
2022-08-26T02:42:16.959Z,0.00
2022-08-26T02:43:16.996Z,0.00
2022-08-26T02:44:16.922Z,0.00
2022-08-26T02:45:16.911Z,0.00
2022-08-26T02:46:27.607Z,0.00
2022-08-26T02:47:16.928Z,0.00
2022-08-26T02:48:16.883Z,0.00
2022-08-26T02:49:17.000Z,0.00
2022-08-26T02:50:16.856Z,0.00
2022-08-26T02:51:16.837Z,0.00
2022-08-26T02:52:16.831Z,0.00
2022-08-26T02:53:16.813Z,0.00
2022-08-26T02:54:16.803Z,0.00
2022-08-26T02:55:16.793Z,0.00
2022-08-26T02:56:16.778Z,0.00
2022-08-26T02:57:16.770Z,0.00
2022-08-26T02:58:16.758Z,0.00
2022-08-26T02:59:16.744Z,0.00
2022-08-26T03:00:16.735Z,0.00
2022-08-26T03:01:16.787Z,0.00
2022-08-26T03:02:16.764Z,0.00
2022-08-26T03:03:16.699Z,0.00
2022-08-26T03:04:16.688Z,0.00
2022-08-26T03:05:16.674Z,0.00
2022-08-26T03:06:16.666Z,0.00
2022-08-26T03:07:16.652Z,0.00
2022-08-26T03:08:16.640Z,0.00
2022-08-26T03:09:18.534Z,0.00
2022-08-26T03:10:16.619Z,0.00
2022-08-26T03:11:16.602Z,0.00
2022-08-26T03:12:16.593Z,0.00
2022-08-26T03:13:16.582Z,0.00
2022-08-26T03:14:16.565Z,0.00
2022-08-26T03:15:17.837Z,0.00
2022-08-26T03:16:16.625Z,0.00
2022-08-26T03:17:16.534Z,0.00
2022-08-26T03:18:16.529Z,0.00
2022-08-26T03:19:17.703Z,0.00
2022-08-26T03:20:17.345Z,0.00
2022-08-26T03:21:16.485Z,0.00
2022-08-26T03:22:16.476Z,0.00
2022-08-26T03:23:16.461Z,0.00
2022-08-26T03:24:16.447Z,0.00
2022-08-26T03:25:16.438Z,0.00
2022-08-26T03:26:16.425Z,0.00
2022-08-26T03:27:16.416Z,0.00
2022-08-26T03:28:16.411Z,0.00
2022-08-26T03:29:16.582Z,0.00
2022-08-26T03:30:16.378Z,0.00
2022-08-26T03:31:16.421Z,0.00
2022-08-26T03:32:16.356Z,0.00
2022-08-26T03:33:16.348Z,0.00
2022-08-26T03:34:16.333Z,0.00
2022-08-26T03:35:16.319Z,0.00
2022-08-26T03:36:16.309Z,0.00
2022-08-26T03:37:16.301Z,0.00
2022-08-26T03:38:16.287Z,0.00
2022-08-26T03:39:16.273Z,0.00
2022-08-26T03:40:16.390Z,0.00
2022-08-26T03:41:16.251Z,0.00
2022-08-26T03:42:16.236Z,0.00
2022-08-26T03:43:16.228Z,0.00
2022-08-26T03:44:16.219Z,0.00
2022-08-26T03:45:16.204Z,0.00
2022-08-26T03:46:16.207Z,0.00
2022-08-26T03:47:16.180Z,0.00
2022-08-26T03:48:16.166Z,0.00
2022-08-26T03:49:16.171Z,0.00
2022-08-26T03:50:16.143Z,0.00
2022-08-26T03:51:18.305Z,0.00
2022-08-26T03:52:16.124Z,0.00
2022-08-26T03:53:16.111Z,0.00
2022-08-26T03:54:16.100Z,0.00
2022-08-26T03:55:16.086Z,0.00
2022-08-26T03:56:16.076Z,0.00
2022-08-26T03:57:16.767Z,0.00
2022-08-26T03:58:16.056Z,0.00
2022-08-26T03:59:16.043Z,0.00
2022-08-26T04:00:18.431Z,0.00
2022-08-26T04:01:16.079Z,0.00
2022-08-26T04:02:16.012Z,0.00
2022-08-26T04:03:18.761Z,0.00
2022-08-26T04:04:15.991Z,0.00
2022-08-26T04:05:15.975Z,0.00
2022-08-26T04:06:15.963Z,0.00
2022-08-26T04:07:23.633Z,4.00
2022-08-26T04:09:20.411Z,0.00
2022-08-26T04:10:20.496Z,0.00
2022-08-26T04:11:20.369Z,4.00
2022-08-26T04:12:20.359Z,4.00
2022-08-26T04:13:20.345Z,4.00
2022-08-26T04:14:20.388Z,4.00
2022-08-26T04:15:20.320Z,4.00
2022-08-26T04:16:20.375Z,8.00
2022-08-26T04:17:20.296Z,4.00
2022-08-26T04:18:20.286Z,8.00
2022-08-26T04:19:20.277Z,8.00
2022-08-26T04:20:20.262Z,12.00
2022-08-26T04:21:20.256Z,12.00
2022-08-26T04:22:24.859Z,12.00
2022-08-26T04:23:20.230Z,12.00
2022-08-26T04:24:20.216Z,16.00
2022-08-26T04:25:20.639Z,20.00
2022-08-26T04:26:20.192Z,20.00
2022-08-26T04:27:20.179Z,20.00
2022-08-26T04:28:20.170Z,24.00
2022-08-26T04:29:20.155Z,24.00
2022-08-26T04:30:20.148Z,28.00
2022-08-26T04:31:20.184Z,28.00
2022-08-26T04:32:20.120Z,32.00
2022-08-26T04:33:20.109Z,36.00
2022-08-26T04:34:20.098Z,40.00
2022-08-26T04:35:25.480Z,40.00
2022-08-26T04:36:20.328Z,44.00
2022-08-26T04:37:20.059Z,48.00
2022-08-26T04:38:20.050Z,52.00
2022-08-26T04:39:20.037Z,56.00
2022-08-26T04:40:20.114Z,60.00
2022-08-26T04:41:20.011Z,64.00
2022-08-26T04:42:23.271Z,68.00
2022-08-26T04:43:19.988Z,76.00
2022-08-26T04:44:19.978Z,80.00
2022-08-26T04:45:22.591Z,84.00
2022-08-26T04:46:19.987Z,92.00
2022-08-26T04:47:19.941Z,96.00
2022-08-26T04:48:19.930Z,100.00
2022-08-26T04:49:19.917Z,108.00
2022-08-26T04:50:19.904Z,116.00
2022-08-26T04:51:19.892Z,116.00
2022-08-26T04:52:19.883Z,124.00
2022-08-26T04:53:19.868Z,128.00
2022-08-26T04:54:19.856Z,136.00
2022-08-26T04:55:19.847Z,140.00
2022-08-26T04:56:19.833Z,140.00
2022-08-26T04:57:19.823Z,144.00
2022-08-26T04:58:19.810Z,160.00
2022-08-26T04:59:19.795Z,168.00
2022-08-26T05:00:19.787Z,176.00
2022-08-26T05:01:19.789Z,188.00
2022-08-26T05:02:19.761Z,192.00
2022-08-26T05:03:19.747Z,200.00
2022-08-26T05:04:19.837Z,204.00
2022-08-26T05:05:19.723Z,216.00
2022-08-26T05:06:19.714Z,224.00
2022-08-26T05:07:19.703Z,232.00
2022-08-26T05:08:19.689Z,236.00
2022-08-26T05:09:19.692Z,240.00
2022-08-26T05:10:19.666Z,248.00
2022-08-26T05:11:19.654Z,256.00
2022-08-26T05:12:19.641Z,260.00
2022-08-26T05:13:20.574Z,268.00
2022-08-26T05:14:19.619Z,280.00
2022-08-26T05:15:19.612Z,296.00
2022-08-26T05:16:19.639Z,316.00
2022-08-26T05:17:19.580Z,336.00
2022-08-26T05:18:19.919Z,360.00
2022-08-26T05:19:19.771Z,384.00
2022-08-26T05:20:25.171Z,404.00
2022-08-26T05:21:19.531Z,424.00
2022-08-26T05:22:19.521Z,448.00
2022-08-26T05:23:19.507Z,472.00
2022-08-26T05:24:19.499Z,496.00
2022-08-26T05:25:19.485Z,528.00
2022-08-26T05:26:23.094Z,552.00
2022-08-26T05:27:19.459Z,580.00
2022-08-26T05:28:19.450Z,608.00
2022-08-26T05:29:19.435Z,628.00
2022-08-26T05:30:19.426Z,664.00
2022-08-26T05:31:19.448Z,696.00
2022-08-26T05:32:19.403Z,724.00
2022-08-26T05:33:19.391Z,752.00
2022-08-26T05:34:19.377Z,780.00
2022-08-26T05:35:19.367Z,808.00
2022-08-26T05:36:19.355Z,836.00
2022-08-26T05:37:19.344Z,872.00
2022-08-26T05:38:19.334Z,892.00
2022-08-26T05:39:19.317Z,912.00
2022-08-26T05:40:19.375Z,928.00
2022-08-26T05:41:19.296Z,952.00
2022-08-26T05:42:19.284Z,984.00
2022-08-26T05:43:20.043Z,1012.00
2022-08-26T05:44:19.263Z,1032.00
2022-08-26T05:45:19.249Z,1048.00
2022-08-26T05:46:19.286Z,1060.00
2022-08-26T05:47:19.225Z,1088.00
2022-08-26T05:48:22.800Z,1124.00
2022-08-26T05:49:19.395Z,1152.00
2022-08-26T05:50:19.198Z,1172.00
2022-08-26T05:51:21.767Z,1192.00
2022-08-26T05:52:19.174Z,1212.00
2022-08-26T05:53:19.154Z,1236.00
2022-08-26T05:54:22.311Z,1248.00
2022-08-26T05:55:19.132Z,1276.00
2022-08-26T05:56:19.122Z,1288.00
2022-08-26T05:57:19.114Z,1304.00
2022-08-26T05:58:19.099Z,1316.00
2022-08-26T05:59:24.344Z,1328.00
2022-08-26T06:00:19.078Z,1340.00
2022-08-26T06:01:19.128Z,1356.00
2022-08-26T06:02:19.086Z,1372.00
2022-08-26T06:03:19.133Z,1388.00
2022-08-26T06:04:19.032Z,1404.00
2022-08-26T06:05:19.019Z,1416.00
2022-08-26T06:06:20.022Z,1424.00
2022-08-26T06:07:19.001Z,1432.00
2022-08-26T06:08:19.290Z,1432.00
2022-08-26T06:09:18.979Z,1432.00
2022-08-26T06:10:32.223Z,1436.00
2022-08-26T06:11:18.956Z,1436.00
2022-08-26T06:12:18.945Z,1432.00
2022-08-26T06:13:18.933Z,1444.00
2022-08-26T06:14:18.922Z,1464.00
2022-08-26T06:15:18.915Z,1484.00
2022-08-26T06:16:18.941Z,1492.00
2022-08-26T06:17:18.892Z,1492.00
2022-08-26T06:18:18.878Z,1496.00
2022-08-26T06:19:18.869Z,1500.00
2022-08-26T06:20:18.863Z,1472.00
2022-08-26T06:21:18.846Z,1344.00
2022-08-26T06:22:23.350Z,1424.00
2022-08-26T06:23:18.824Z,1460.00
2022-08-26T06:24:18.820Z,1440.00
2022-08-26T06:25:18.802Z,1452.00
2022-08-26T06:26:18.793Z,1496.00
2022-08-26T06:27:18.782Z,1540.00
2022-08-26T06:28:18.771Z,1580.00
2022-08-26T06:29:24.119Z,1580.00
2022-08-26T06:30:18.754Z,1536.00
2022-08-26T06:31:18.790Z,1572.00
2022-08-26T06:32:18.730Z,1596.00
2022-08-26T06:33:18.719Z,1512.00
2022-08-26T06:34:18.706Z,1512.00
2022-08-26T06:35:18.697Z,1520.00
2022-08-26T06:36:18.777Z,1512.00
2022-08-26T06:37:18.677Z,1524.00
2022-08-26T06:38:18.665Z,1528.00
2022-08-26T06:39:18.653Z,1572.00
2022-08-26T06:40:18.679Z,1600.00
2022-08-26T06:41:18.632Z,1612.00
2022-08-26T06:42:18.624Z,1632.00
2022-08-26T06:43:18.611Z,1656.00
2022-08-26T06:44:18.601Z,1676.00
2022-08-26T06:45:18.593Z,1700.00
2022-08-26T06:46:18.621Z,1760.00
2022-08-26T06:47:18.570Z,1884.00
2022-08-26T06:48:18.574Z,1932.00
2022-08-26T06:49:18.551Z,2004.00
2022-08-26T06:50:18.544Z,2040.00
2022-08-26T06:51:18.530Z,2120.00
2022-08-26T06:52:22.986Z,2068.00
2022-08-26T06:53:18.508Z,1956.00
2022-08-26T06:54:18.499Z,2060.00
2022-08-26T06:55:18.489Z,2392.00
2022-08-26T06:56:18.481Z,2556.00
2022-08-26T06:57:18.473Z,2560.00
2022-08-26T06:58:18.470Z,2676.00
2022-08-26T06:59:18.449Z,2848.00
2022-08-26T07:00:18.442Z,2932.00
2022-08-26T07:01:18.468Z,2940.00
2022-08-26T07:02:18.455Z,2948.00
2022-08-26T07:03:18.475Z,2924.00
2022-08-26T07:04:21.974Z,2796.00
2022-08-26T07:05:18.393Z,2668.00
2022-08-26T07:06:18.384Z,2712.00
2022-08-26T07:07:18.372Z,2656.00
2022-08-26T07:08:18.361Z,2604.00
2022-08-26T07:09:18.354Z,2560.00
2022-08-26T07:10:18.346Z,2572.00
2022-08-26T07:11:18.333Z,2628.00
2022-08-26T07:12:18.325Z,2596.00
2022-08-26T07:13:18.313Z,2824.00
2022-08-26T07:14:19.335Z,3144.00
2022-08-26T07:15:18.294Z,3368.00
2022-08-26T07:16:18.329Z,3576.00
2022-08-26T07:17:18.277Z,3708.00
2022-08-26T07:18:18.269Z,3792.00
2022-08-26T07:19:18.257Z,3876.00
2022-08-26T07:20:18.247Z,3952.00
2022-08-26T07:21:18.405Z,4040.00
2022-08-26T07:22:18.230Z,3980.00
2022-08-26T07:23:18.224Z,3256.00
2022-08-26T07:24:18.214Z,3140.00
2022-08-26T07:25:19.349Z,3340.00
2022-08-26T07:26:18.193Z,3400.00
2022-08-26T07:27:18.188Z,3736.00
2022-08-26T07:28:18.181Z,4204.00
2022-08-26T07:29:18.170Z,4584.00
2022-08-26T07:30:18.158Z,4784.00
2022-08-26T07:31:18.280Z,4900.00
2022-08-26T07:32:18.156Z,5036.00
2022-08-26T07:33:18.137Z,5184.00
2022-08-26T07:34:18.123Z,5328.00
2022-08-26T07:35:18.120Z,5460.00
2022-08-26T07:36:18.109Z,5592.00
2022-08-26T07:37:18.106Z,5728.00
2022-08-26T07:38:18.095Z,5864.00
2022-08-26T07:39:18.086Z,5636.00
2022-08-26T07:40:18.125Z,5932.00
2022-08-26T07:41:18.084Z,6236.00
2022-08-26T07:42:18.489Z,6420.00
2022-08-26T07:43:18.053Z,6536.00
2022-08-26T07:44:18.045Z,6612.00
2022-08-26T07:45:18.037Z,6692.00
2022-08-26T07:46:18.027Z,6816.00
2022-08-26T07:47:25.031Z,6932.00
2022-08-26T07:48:18.012Z,7164.00
2022-08-26T07:49:18.049Z,7396.00
2022-08-26T07:50:17.999Z,7624.00
2022-08-26T07:51:17.995Z,7848.00
2022-08-26T07:52:19.871Z,8036.00
2022-08-26T07:53:18.228Z,8164.00
2022-08-26T07:54:17.971Z,8264.00
2022-08-26T07:55:17.963Z,8356.00
2022-08-26T07:56:17.955Z,8404.00
2022-08-26T07:57:19.169Z,8472.00
2022-08-26T07:58:17.942Z,8364.00
2022-08-26T07:59:17.937Z,8416.00
2022-08-26T08:00:17.933Z,8376.00
2022-08-26T08:01:17.964Z,8396.00
2022-08-26T08:02:17.916Z,8672.00
2022-08-26T08:03:17.912Z,8892.00
2022-08-26T08:04:18.133Z,8968.00
2022-08-26T08:05:17.939Z,8660.00
2022-08-26T08:06:17.893Z,7664.00
2022-08-26T08:07:17.892Z,7816.00
2022-08-26T08:08:27.508Z,8968.00
2022-08-26T08:09:17.882Z,9680.00
2022-08-26T08:10:17.871Z,10552.00
2022-08-26T08:11:17.867Z,10848.00
2022-08-26T08:12:17.859Z,10720.00
2022-08-26T08:13:17.857Z,10820.00
2022-08-26T08:14:17.870Z,10768.00
2022-08-26T08:15:17.848Z,11440.00
2022-08-26T08:16:17.859Z,11604.00
2022-08-26T08:17:17.838Z,11868.00
2022-08-26T08:18:17.832Z,11904.00
2022-08-26T08:19:17.825Z,11776.00
2022-08-26T08:20:17.819Z,11092.00
2022-08-26T08:21:21.290Z,9156.00
2022-08-26T08:22:19.933Z,8032.00
2022-08-26T08:23:17.810Z,8924.00
2022-08-26T08:24:17.802Z,7804.00
2022-08-26T08:25:17.799Z,8096.00
2022-08-26T08:26:17.794Z,8568.00
2022-08-26T08:27:22.851Z,8556.00
2022-08-26T08:28:17.786Z,9680.00
2022-08-26T08:29:17.844Z,8228.00
2022-08-26T08:30:17.778Z,6380.00
2022-08-26T08:31:21.642Z,10540.00
2022-08-26T08:32:17.767Z,8780.00
2022-08-26T08:33:17.769Z,9604.00
2022-08-26T08:34:18.105Z,8100.00
2022-08-26T08:35:17.755Z,6296.00
2022-08-26T08:36:20.368Z,5020.00
2022-08-26T08:37:17.750Z,5708.00
2022-08-26T08:38:17.744Z,6140.00
2022-08-26T08:39:17.817Z,6476.00
2022-08-26T08:40:17.786Z,10964.00
2022-08-26T08:41:17.731Z,6740.00
2022-08-26T08:42:17.724Z,10568.00
2022-08-26T08:43:17.730Z,10168.00
2022-08-26T08:44:17.750Z,9416.00
2022-08-26T08:45:17.718Z,8420.00
2022-08-26T08:46:17.756Z,8852.00
2022-08-26T08:47:17.706Z,7852.00
2022-08-26T08:48:17.702Z,7460.00
2022-08-26T08:49:17.779Z,5464.00
2022-08-26T08:50:17.710Z,5832.00
2022-08-26T08:51:17.689Z,7044.00
2022-08-26T08:52:17.684Z,8132.00
2022-08-26T08:53:17.680Z,9004.00
2022-08-26T08:54:17.674Z,11388.00
2022-08-26T08:55:18.212Z,10984.00
2022-08-26T08:56:17.669Z,9056.00
2022-08-26T08:57:17.694Z,10844.00
2022-08-26T08:58:19.148Z,12068.00
2022-08-26T08:59:17.722Z,12392.00
2022-08-26T09:00:17.790Z,12688.00
2022-08-26T09:01:17.676Z,12620.00
2022-08-26T09:02:17.702Z,12812.00
2022-08-26T09:03:17.646Z,12892.00
2022-08-26T09:04:17.639Z,13052.00
2022-08-26T09:05:17.640Z,13404.00
2022-08-26T09:06:17.632Z,13544.00
2022-08-26T09:07:17.630Z,13184.00
2022-08-26T09:08:19.888Z,13740.00
2022-08-26T09:09:17.626Z,13820.00
2022-08-26T09:10:17.724Z,14116.00
2022-08-26T09:11:17.620Z,14184.00
2022-08-26T09:12:17.617Z,14212.00
2022-08-26T09:13:25.053Z,14196.00
2022-08-26T09:14:17.614Z,14528.00
2022-08-26T09:15:17.612Z,14392.00
2022-08-26T09:16:19.165Z,14456.00
2022-08-26T09:17:17.608Z,14616.00
2022-08-26T09:18:17.605Z,14708.00
2022-08-26T09:19:18.865Z,14344.00
2022-08-26T09:20:17.695Z,14512.00
2022-08-26T09:21:17.939Z,14580.00
2022-08-26T09:22:17.630Z,14840.00
2022-08-26T09:23:17.597Z,14872.00
2022-08-26T09:24:18.143Z,14780.00
2022-08-26T09:25:18.071Z,14860.00
2022-08-26T09:26:17.597Z,14808.00
2022-08-26T09:27:17.606Z,15024.00
2022-08-26T09:28:17.591Z,14904.00
2022-08-26T09:29:17.671Z,14740.00
2022-08-26T09:30:17.702Z,14564.00
2022-08-26T09:31:17.649Z,14500.00
2022-08-26T09:32:17.588Z,14412.00
2022-08-26T09:33:17.589Z,14380.00
2022-08-26T09:34:17.856Z,14284.00
2022-08-26T09:35:17.589Z,14332.00
2022-08-26T09:36:17.588Z,14132.00
2022-08-26T09:37:17.589Z,13892.00
2022-08-26T09:38:17.586Z,13948.00
2022-08-26T09:39:17.587Z,13920.00
2022-08-26T09:40:17.791Z,13668.00
2022-08-26T09:41:17.587Z,13992.00
2022-08-26T09:42:17.587Z,14140.00
2022-08-26T09:43:22.801Z,14200.00
2022-08-26T09:44:17.586Z,14072.00
2022-08-26T09:45:17.607Z,14172.00
2022-08-26T09:46:17.709Z,14420.00
2022-08-26T09:47:17.585Z,14352.00
2022-08-26T09:48:17.730Z,14644.00
2022-08-26T09:49:17.588Z,14728.00
2022-08-26T09:50:17.584Z,14704.00
2022-08-26T09:51:17.585Z,13580.00
2022-08-26T09:52:17.586Z,11984.00
2022-08-26T09:53:17.584Z,11428.00
2022-08-26T09:54:20.771Z,12872.00
2022-08-26T09:55:17.585Z,11436.00
2022-08-26T09:56:17.582Z,11868.00
2022-08-26T09:57:17.585Z,10732.00
2022-08-26T09:58:17.582Z,10824.00
2022-08-26T09:59:18.897Z,10280.00
2022-08-26T10:00:17.581Z,11668.00
2022-08-26T10:01:17.669Z,14252.00
2022-08-26T10:02:17.579Z,14900.00
2022-08-26T10:03:17.581Z,14936.00
2022-08-26T10:04:17.612Z,14900.00
2022-08-26T10:05:17.580Z,14760.00
2022-08-26T10:06:17.579Z,14348.00
2022-08-26T10:07:17.578Z,14060.00
2022-08-26T10:08:17.577Z,12952.00
2022-08-26T10:09:17.576Z,13076.00
2022-08-26T10:10:17.579Z,13104.00
2022-08-26T10:11:17.580Z,12724.00
2022-08-26T10:12:17.576Z,10184.00
2022-08-26T10:13:17.577Z,6744.00
2022-08-26T10:14:17.576Z,6196.00
2022-08-26T10:15:17.580Z,5496.00
2022-08-26T10:16:17.828Z,3888.00
2022-08-26T10:17:17.576Z,2400.00
2022-08-26T10:18:17.574Z,2764.00
2022-08-26T10:19:17.576Z,2616.00
2022-08-26T10:20:22.691Z,2384.00
2022-08-26T10:21:17.965Z,2596.00
2022-08-26T10:22:17.573Z,2392.00
2022-08-26T10:23:17.570Z,2284.00
2022-08-26T10:24:17.569Z,2048.00
2022-08-26T10:25:17.570Z,1984.00
2022-08-26T10:26:17.574Z,1996.00
2022-08-26T10:27:17.566Z,2036.00
2022-08-26T10:28:17.562Z,2048.00
2022-08-26T10:29:17.565Z,1944.00
2022-08-26T10:30:17.559Z,1856.00
2022-08-26T10:31:17.559Z,1780.00
2022-08-26T10:32:17.645Z,1708.00
2022-08-26T10:33:17.946Z,1640.00
2022-08-26T10:34:17.549Z,1580.00
2022-08-26T10:35:17.550Z,1544.00
2022-08-26T10:36:20.287Z,1524.00
2022-08-26T10:37:17.542Z,1508.00
2022-08-26T10:38:17.537Z,1496.00
2022-08-26T10:39:17.539Z,1480.00
2022-08-26T10:40:17.665Z,1464.00
2022-08-26T10:41:18.257Z,1432.00
2022-08-26T10:42:17.527Z,1384.00
2022-08-26T10:43:17.526Z,1328.00
2022-08-26T10:44:17.520Z,1260.00
2022-08-26T10:45:17.512Z,1192.00
2022-08-26T10:46:17.533Z,1124.00
2022-08-26T10:47:17.515Z,1084.00
2022-08-26T10:48:17.497Z,1060.00
2022-08-26T10:49:17.493Z,1048.00
2022-08-26T10:50:18.024Z,1052.00
2022-08-26T10:51:17.484Z,1052.00
2022-08-26T10:52:17.477Z,1060.00
2022-08-26T10:53:17.474Z,1060.00
2022-08-26T10:54:17.466Z,1064.00
2022-08-26T10:55:17.462Z,1064.00
2022-08-26T10:56:19.190Z,1068.00
2022-08-26T10:57:17.452Z,1064.00
2022-08-26T10:58:26.064Z,1064.00
2022-08-26T10:59:17.443Z,1060.00
2022-08-26T11:00:17.442Z,1060.00
2022-08-26T11:01:17.461Z,1064.00
2022-08-26T11:02:19.497Z,1064.00
2022-08-26T11:03:21.898Z,1068.00
2022-08-26T11:04:17.469Z,1072.00
2022-08-26T11:05:17.408Z,1076.00
2022-08-26T11:06:17.409Z,1080.00
2022-08-26T11:07:17.394Z,1084.00
2022-08-26T11:08:17.419Z,1080.00
2022-08-26T11:09:17.380Z,1076.00
2022-08-26T11:10:17.375Z,1080.00
2022-08-26T11:11:17.368Z,1076.00
2022-08-26T11:12:17.362Z,1072.00
2022-08-26T11:13:17.356Z,1072.00
2022-08-26T11:14:17.348Z,1072.00
2022-08-26T11:15:17.347Z,1072.00
2022-08-26T11:16:17.367Z,1072.00
2022-08-26T11:17:17.332Z,1076.00
2022-08-26T11:18:17.322Z,1076.00
2022-08-26T11:19:17.314Z,1076.00
2022-08-26T11:20:17.307Z,1080.00
2022-08-26T11:21:17.304Z,1084.00
2022-08-26T11:22:17.291Z,1084.00
2022-08-26T11:23:17.287Z,1092.00
2022-08-26T11:24:17.281Z,1096.00
2022-08-26T11:25:18.206Z,1100.00
2022-08-26T11:26:36.024Z,1108.00
2022-08-26T11:27:17.257Z,1116.00
2022-08-26T11:28:17.251Z,1124.00
2022-08-26T11:29:17.241Z,1132.00
2022-08-26T11:30:18.556Z,1136.00
2022-08-26T11:31:17.270Z,1152.00
2022-08-26T11:32:17.220Z,1164.00
2022-08-26T11:33:17.211Z,1176.00
2022-08-26T11:34:17.204Z,1188.00
2022-08-26T11:35:17.198Z,1204.00
2022-08-26T11:36:17.192Z,1220.00
2022-08-26T11:37:17.257Z,1232.00
2022-08-26T11:38:17.173Z,1252.00
2022-08-26T11:39:17.167Z,1268.00
2022-08-26T11:40:17.191Z,1280.00
2022-08-26T11:41:17.152Z,1300.00
2022-08-26T11:42:20.325Z,1316.00
2022-08-26T11:43:17.133Z,1336.00
2022-08-26T11:44:17.128Z,1348.00
2022-08-26T11:45:17.120Z,1368.00
2022-08-26T11:46:17.160Z,1384.00
2022-08-26T11:47:17.103Z,1404.00
2022-08-26T11:48:17.100Z,1420.00
2022-08-26T11:49:17.093Z,1436.00
2022-08-26T11:50:17.079Z,1456.00
2022-08-26T11:51:17.070Z,1476.00
2022-08-26T11:52:17.067Z,1500.00
2022-08-26T11:53:17.057Z,1524.00
2022-08-26T11:54:17.048Z,1544.00
2022-08-26T11:55:17.041Z,1568.00
2022-08-26T11:56:17.034Z,1584.00
2022-08-26T11:57:17.025Z,1600.00
2022-08-26T11:58:17.017Z,1616.00
2022-08-26T11:59:17.010Z,1632.00
2022-08-26T12:00:20.937Z,1644.00
2022-08-26T12:01:17.080Z,1660.00
2022-08-26T12:02:17.898Z,1680.00
2022-08-26T12:03:17.093Z,1700.00
2022-08-26T12:04:17.072Z,1728.00
2022-08-26T12:05:16.960Z,1760.00
2022-08-26T12:06:17.025Z,1796.00
2022-08-26T12:07:16.946Z,1828.00
2022-08-26T12:08:16.938Z,1868.00
2022-08-26T12:09:16.930Z,1904.00
2022-08-26T12:10:16.923Z,1940.00
2022-08-26T12:11:16.916Z,1980.00
2022-08-26T12:12:16.908Z,2012.00
2022-08-26T12:13:16.902Z,2044.00
2022-08-26T12:14:16.891Z,2072.00
2022-08-26T12:15:16.884Z,2092.00
2022-08-26T12:16:16.923Z,2120.00
2022-08-26T12:17:16.871Z,2140.00
2022-08-26T12:18:16.861Z,2168.00
2022-08-26T12:19:16.853Z,2192.00
2022-08-26T12:20:16.849Z,2216.00
2022-08-26T12:21:16.839Z,2232.00
2022-08-26T12:22:16.833Z,2240.00
2022-08-26T12:23:16.826Z,2252.00
2022-08-26T12:24:16.820Z,2260.00
2022-08-26T12:25:16.810Z,2264.00
2022-08-26T12:26:16.803Z,2268.00
2022-08-26T12:27:16.793Z,2268.00
2022-08-26T12:28:16.788Z,2272.00
2022-08-26T12:29:20.103Z,2276.00
2022-08-26T12:30:19.165Z,2280.00